createdAt,value
2024-05-09T00:00:44.724Z,58.74
2024-05-09T00:03:12.652Z,58.94
2024-05-09T00:05:43.756Z,59.71
2024-05-09T00:08:11.900Z,59.31
2024-05-09T00:10:40.722Z,59.54
2024-05-09T00:13:09.335Z,60.25
2024-05-09T00:15:37.311Z,60.25
2024-05-09T00:18:05.965Z,60.90
2024-05-09T00:20:38.819Z,60.39
2024-05-09T00:23:10.566Z,59.91
2024-05-09T00:25:38.305Z,60.17
2024-05-09T00:28:06.229Z,59.84
2024-05-09T00:30:36.167Z,59.70
2024-05-09T00:33:06.549Z,59.19
2024-05-09T00:35:35.489Z,58.71
2024-05-09T00:38:03.292Z,57.73
2024-05-09T00:40:39.850Z,57.15
2024-05-09T00:43:14.512Z,57.54
2024-05-09T00:45:42.972Z,56.15
2024-05-09T00:48:13.428Z,56.17
2024-05-09T00:50:42.994Z,55.97
2024-05-09T00:53:11.783Z,56.09
2024-05-09T00:55:39.579Z,55.50
2024-05-09T00:58:07.791Z,55.56
2024-05-09T01:00:39.421Z,55.38
2024-05-09T01:03:10.899Z,55.74
2024-05-09T01:05:40.610Z,55.64
2024-05-09T01:08:08.740Z,55.57
2024-05-09T01:10:37.094Z,56.03
2024-05-09T01:13:05.033Z,55.52
2024-05-09T01:15:32.978Z,55.76
2024-05-09T01:18:01.728Z,55.69
2024-05-09T01:20:39.533Z,55.79
2024-05-09T01:23:10.549Z,55.19
2024-05-09T01:25:38.107Z,55.29
2024-05-09T01:28:06.093Z,55.62
2024-05-09T01:30:36.106Z,56.24
2024-05-09T01:33:07.310Z,55.91
2024-05-09T01:35:36.705Z,56.00
2024-05-09T01:38:04.461Z,55.95
2024-05-09T01:40:37.599Z,56.91
2024-05-09T01:43:08.294Z,56.69
2024-05-09T01:45:36.585Z,57.21
2024-05-09T01:48:04.740Z,57.59
2024-05-09T01:50:38.526Z,58.40
2024-05-09T01:53:09.959Z,58.28
2024-05-09T01:55:37.615Z,57.99
2024-05-09T01:58:05.082Z,58.91
2024-05-09T02:00:39.164Z,58.88
2024-05-09T02:03:15.609Z,58.89
2024-05-09T02:05:46.164Z,59.03
2024-05-09T02:08:15.597Z,59.23
2024-05-09T02:10:47.607Z,59.39
2024-05-09T02:13:15.630Z,59.18
2024-05-09T02:15:43.211Z,59.08
2024-05-09T02:18:11.185Z,59.36
2024-05-09T02:20:39.469Z,60.09
2024-05-09T02:23:08.613Z,60.48
2024-05-09T02:25:36.294Z,60.91
2024-05-09T02:28:03.870Z,60.37
2024-05-09T02:30:39.315Z,60.50
2024-05-09T02:33:10.973Z,60.47
2024-05-09T02:35:40.473Z,60.94
2024-05-09T02:38:09.083Z,60.49
2024-05-09T02:40:38.784Z,61.52
2024-05-09T02:43:07.900Z,61.88
2024-05-09T02:45:35.812Z,61.47
2024-05-09T02:48:03.535Z,61.95
2024-05-09T02:50:37.802Z,61.89
2024-05-09T02:53:08.410Z,61.35
2024-05-09T02:55:36.619Z,61.69
2024-05-09T02:58:04.117Z,61.13
2024-05-09T03:00:38.424Z,62.08
2024-05-09T03:03:10.100Z,61.57
2024-05-09T03:05:39.847Z,61.76
2024-05-09T03:08:07.708Z,61.51
2024-05-09T03:10:37.271Z,61.55
2024-05-09T03:13:07.429Z,61.51
2024-05-09T03:15:34.794Z,61.96
2024-05-09T03:18:02.510Z,61.08
2024-05-09T03:20:34.252Z,61.09
2024-05-09T03:23:04.548Z,60.86
2024-05-09T03:25:32.273Z,60.31
2024-05-09T03:27:59.809Z,61.22
2024-05-09T03:30:38.703Z,60.46
2024-05-09T03:33:15.552Z,60.66
2024-05-09T03:35:43.946Z,59.85
2024-05-09T03:38:11.493Z,60.42
2024-05-09T03:40:47.258Z,59.18
2024-05-09T03:43:14.903Z,59.77
2024-05-09T03:45:42.854Z,59.30
2024-05-09T03:48:10.674Z,59.18
2024-05-09T03:50:38.465Z,59.29
2024-05-09T03:53:06.304Z,58.69
2024-05-09T03:55:33.730Z,58.82
2024-05-09T03:58:01.146Z,58.49
2024-05-09T04:00:35.775Z,59.01
2024-05-09T04:03:08.946Z,58.34
2024-05-09T04:05:43.795Z,58.98
2024-05-09T04:08:14.711Z,58.70
2024-05-09T04:10:42.361Z,58.28
2024-05-09T04:13:10.339Z,57.11
2024-05-09T04:15:37.754Z,57.69
2024-05-09T04:18:05.607Z,58.10
2024-05-09T04:20:38.422Z,57.92
2024-05-09T04:23:11.396Z,56.34
2024-05-09T04:25:41.392Z,55.70
2024-05-09T04:28:08.760Z,54.44
2024-05-09T04:30:39.424Z,54.00
2024-05-09T04:33:11.183Z,53.54
2024-05-09T04:35:42.617Z,53.69
2024-05-09T04:38:10.684Z,54.09
2024-05-09T04:40:38.456Z,53.85
2024-05-09T04:43:06.904Z,53.36
2024-05-09T04:45:35.267Z,52.86
2024-05-09T04:48:03.367Z,52.44
2024-05-09T04:50:36.835Z,51.89
2024-05-09T04:53:08.382Z,52.43
2024-05-09T04:55:37.362Z,52.19
2024-05-09T04:58:05.665Z,52.68
2024-05-09T05:00:37.216Z,52.12
2024-05-09T05:03:13.056Z,51.90
2024-05-09T05:05:44.038Z,51.89
2024-05-09T05:08:15.685Z,52.23
2024-05-09T05:10:43.940Z,52.29
2024-05-09T05:13:20.822Z,52.80
2024-05-09T05:15:51.052Z,53.11
2024-05-09T05:18:18.929Z,53.71
2024-05-09T05:20:46.740Z,52.57
2024-05-09T05:23:15.923Z,52.39
2024-05-09T05:25:43.822Z,52.67
2024-05-09T05:28:11.371Z,52.59
2024-05-09T05:30:39.062Z,51.99
2024-05-09T05:33:07.110Z,52.86
2024-05-09T05:35:34.985Z,53.14
2024-05-09T05:38:03.351Z,52.99
2024-05-09T05:40:36.397Z,52.64
2024-05-09T05:43:05.983Z,52.54
2024-05-09T05:45:33.543Z,52.98
2024-05-09T05:48:06.601Z,52.39
2024-05-09T05:50:37.195Z,52.47
2024-05-09T05:53:06.797Z,52.73
2024-05-09T05:55:34.490Z,52.76
2024-05-09T05:58:02.411Z,52.24
2024-05-09T06:00:37.427Z,51.94
2024-05-09T06:03:08.018Z,51.84
2024-05-09T06:05:36.564Z,51.71
2024-05-09T06:08:06.690Z,51.39
2024-05-09T06:10:38.444Z,52.13
2024-05-09T06:13:12.204Z,52.09
2024-05-09T06:15:40.621Z,51.49
2024-05-09T06:18:09.128Z,50.10
2024-05-09T06:20:38.380Z,49.32
2024-05-09T06:23:06.639Z,48.83
2024-05-09T06:25:37.188Z,47.91
2024-05-09T06:28:05.100Z,47.38
2024-05-09T06:30:39.339Z,46.71
2024-05-09T06:33:10.810Z,46.70
2024-05-09T06:35:40.525Z,45.89
2024-05-09T06:38:11.650Z,45.98
2024-05-09T06:40:41.311Z,44.99
2024-05-09T06:43:13.414Z,44.74
2024-05-09T06:45:41.148Z,45.14
2024-05-09T06:48:09.122Z,44.86
2024-05-09T06:50:38.544Z,45.16
2024-05-09T06:53:07.911Z,45.18
2024-05-09T06:55:36.093Z,45.38
2024-05-09T06:58:05.522Z,45.67
2024-05-09T07:00:38.888Z,45.99
2024-05-09T07:03:09.949Z,46.17
2024-05-09T07:05:37.852Z,45.90
2024-05-09T07:08:06.247Z,45.61
2024-05-09T07:10:35.870Z,45.51
2024-05-09T07:13:11.205Z,44.43
2024-05-09T07:15:38.954Z,44.66
2024-05-09T07:18:15.579Z,43.97
2024-05-09T07:20:43.667Z,43.50
2024-05-09T07:23:12.061Z,42.62
2024-05-09T07:25:40.148Z,42.53
2024-05-09T07:28:13.383Z,42.13
2024-05-09T07:30:41.133Z,42.16
2024-05-09T07:33:08.686Z,42.74
2024-05-09T07:35:36.454Z,43.01
2024-05-09T07:38:04.034Z,43.23
2024-05-09T07:40:36.099Z,43.10
2024-05-09T07:43:04.978Z,42.18
2024-05-09T07:52:23.394Z,43.09
2024-05-09T07:53:39.475Z,42.64
2024-05-09T07:56:11.522Z,42.09
2024-05-09T07:58:39.514Z,42.11
2024-05-09T08:01:07.076Z,42.79
2024-05-09T08:03:34.836Z,42.62
2024-05-09T08:06:02.369Z,42.33
2024-05-09T08:08:29.763Z,42.60
2024-05-09T08:10:57.198Z,42.52
2024-05-09T08:13:24.657Z,43.17
2024-05-09T08:15:52.628Z,41.95
2024-05-09T08:18:20.430Z,41.90
2024-05-09T08:20:48.477Z,42.47
2024-05-09T08:23:15.918Z,42.73
2024-05-09T08:25:43.404Z,42.50
2024-05-09T08:28:11.532Z,42.50
2024-05-09T08:30:39.255Z,41.83
2024-05-09T08:33:07.632Z,42.08
2024-05-09T08:35:35.795Z,41.58
2024-05-09T08:38:04.185Z,41.44
2024-05-09T08:40:35.738Z,41.51
2024-05-09T08:43:09.843Z,40.71
2024-05-09T08:45:39.571Z,40.64
2024-05-09T08:48:08.369Z,40.80
2024-05-09T08:50:39.216Z,41.03
2024-05-09T08:53:08.264Z,40.86
2024-05-09T08:55:40.234Z,40.82
2024-05-09T08:58:18.261Z,41.50
2024-05-09T09:00:46.472Z,40.96
2024-05-09T09:03:22.817Z,41.77
2024-05-09T09:06:02.889Z,41.09
2024-05-09T09:08:30.251Z,40.67
2024-05-09T09:11:00.552Z,40.14
2024-05-09T09:13:27.978Z,40.80
2024-05-09T09:15:58.623Z,40.14
2024-05-09T09:18:27.047Z,39.34
2024-05-09T09:20:55.104Z,39.88
2024-05-09T09:23:22.801Z,39.14
2024-05-09T09:25:50.549Z,39.00
2024-05-09T09:28:18.080Z,39.23
2024-05-09T09:30:45.580Z,38.71
2024-05-09T09:33:13.181Z,39.40
2024-05-09T09:35:42.620Z,38.57
2024-05-09T09:38:10.731Z,37.47
2024-05-09T09:40:46.722Z,37.00
2024-05-09T09:43:21.448Z,37.19
2024-05-09T09:45:51.148Z,37.09
2024-05-09T09:48:19.971Z,37.74
2024-05-09T09:50:47.726Z,37.78
2024-05-09T09:53:15.088Z,37.57
2024-05-09T09:55:42.448Z,36.69
2024-05-09T09:58:13.375Z,36.99
2024-05-09T10:00:42.274Z,36.57
2024-05-09T10:03:09.987Z,36.09
2024-05-09T10:05:37.947Z,35.42
2024-05-09T10:08:09.241Z,35.54
2024-05-09T10:10:36.736Z,35.88
2024-05-09T10:13:04.926Z,35.83
2024-05-09T10:15:48.547Z,35.58
2024-05-09T10:18:16.437Z,35.47
2024-05-09T10:20:44.762Z,35.40
2024-05-09T10:23:28.658Z,35.58
2024-05-09T10:26:00.421Z,35.96
2024-05-09T10:28:28.858Z,36.27
2024-05-09T10:31:09.889Z,35.30
2024-05-09T10:33:55.860Z,34.32
2024-05-09T10:36:27.287Z,34.93
2024-05-09T10:38:55.154Z,33.89
2024-05-09T10:41:23.207Z,33.84
2024-05-09T10:43:50.916Z,33.56
2024-05-09T10:46:21.499Z,34.42
2024-05-09T10:48:49.927Z,33.90
2024-05-09T10:51:19.294Z,34.40
2024-05-09T10:53:47.886Z,33.23
2024-05-09T10:56:15.360Z,32.99
2024-05-09T10:58:42.822Z,33.12
2024-05-09T11:01:11.506Z,32.53
2024-05-09T11:03:39.712Z,33.24
2024-05-09T11:06:07.678Z,33.00
2024-05-09T11:08:35.219Z,33.92
2024-05-09T11:11:04.748Z,33.58
2024-05-09T11:13:35.686Z,33.06
2024-05-09T11:16:03.352Z,33.10
2024-05-09T11:18:35.199Z,31.63
2024-05-09T11:21:14.225Z,31.92
2024-05-09T11:23:41.852Z,31.34
2024-05-09T11:26:10.892Z,31.51
2024-05-09T11:28:38.487Z,32.08
2024-05-09T11:31:07.571Z,32.58
2024-05-09T11:33:39.270Z,32.54
2024-05-09T11:36:07.467Z,32.07
2024-05-09T11:38:35.973Z,32.39
2024-05-09T11:41:04.440Z,31.65
2024-05-09T11:43:31.957Z,32.50
2024-05-09T11:46:03.550Z,32.96
2024-05-09T11:48:31.808Z,32.44
2024-05-09T11:50:59.551Z,31.49
2024-05-09T11:53:26.949Z,30.66
2024-05-09T11:55:54.315Z,30.89
2024-05-09T11:58:23.066Z,31.50
2024-05-09T12:00:50.603Z,30.63
2024-05-09T12:03:18.204Z,31.33
2024-05-09T12:05:45.925Z,31.01
2024-05-09T12:08:14.275Z,31.24
2024-05-09T12:10:44.880Z,30.92
2024-05-09T12:13:12.449Z,30.40
2024-05-09T12:15:39.944Z,29.84
2024-05-09T12:18:08.217Z,30.01
2024-05-09T12:20:38.847Z,29.43
2024-05-09T12:23:09.334Z,28.67
2024-05-09T12:25:38.403Z,28.17
2024-05-09T12:28:06.423Z,29.20
2024-05-09T12:30:38.330Z,29.04
2024-05-09T12:33:09.276Z,28.69
2024-05-09T12:35:37.014Z,28.92
2024-05-09T12:38:04.647Z,28.69
2024-05-09T12:40:36.687Z,28.36
2024-05-09T12:43:10.225Z,28.06
2024-05-09T12:45:39.090Z,28.52
2024-05-09T12:48:11.910Z,28.30
2024-05-09T12:50:40.186Z,29.15
2024-05-09T12:53:07.659Z,29.19
2024-05-09T12:55:43.920Z,29.00
2024-05-09T12:58:17.298Z,28.10
2024-05-09T13:00:45.492Z,28.92
2024-05-09T13:03:13.482Z,28.88
2024-05-09T13:05:41.680Z,28.50
2024-05-09T13:08:09.418Z,28.34
2024-05-09T13:10:37.026Z,28.09
2024-05-09T13:13:04.838Z,28.12
2024-05-09T13:15:34.554Z,27.51
2024-05-09T13:18:03.522Z,28.04
2024-05-09T13:20:34.224Z,27.65
2024-05-09T13:23:04.275Z,27.40
2024-05-09T13:25:34.314Z,26.22
2024-05-09T13:28:04.878Z,26.61
2024-05-09T13:30:39.474Z,25.69
2024-05-09T13:33:13.650Z,25.30
2024-05-09T13:35:46.679Z,26.02
2024-05-09T13:38:17.539Z,26.50
2024-05-09T13:40:45.444Z,25.76
2024-05-09T13:43:13.640Z,25.39
2024-05-09T13:45:41.176Z,25.86
2024-05-09T13:48:10.007Z,26.04
2024-05-09T13:50:37.741Z,25.34
2024-05-09T13:53:06.988Z,24.61
2024-05-09T13:55:37.420Z,24.63
2024-05-09T13:58:05.163Z,25.43
2024-05-09T14:00:43.797Z,25.51
2024-05-09T14:03:16.618Z,24.78
2024-05-09T14:05:45.493Z,23.81
2024-05-09T14:08:15.266Z,22.72
2024-05-09T14:10:45.143Z,21.81
2024-05-09T14:13:13.527Z,20.82
2024-05-09T14:15:41.234Z,20.81
2024-05-09T14:18:12.431Z,20.55
2024-05-09T14:20:42.089Z,20.48
2024-05-09T14:23:09.781Z,19.51
2024-05-09T14:25:42.018Z,18.82
2024-05-09T14:28:11.322Z,18.75
2024-05-09T14:30:39.639Z,19.43
2024-05-09T14:33:09.897Z,19.72
2024-05-09T14:35:38.669Z,19.04
2024-05-09T14:38:07.251Z,18.60
2024-05-09T14:40:41.383Z,18.96
2024-05-09T14:43:11.877Z,18.51
2024-05-09T14:45:39.763Z,18.20
2024-05-09T14:48:07.883Z,18.86
2024-05-09T14:50:38.667Z,18.36
2024-05-09T14:53:08.430Z,18.62
2024-05-09T14:55:37.500Z,18.29
2024-05-09T14:58:09.242Z,18.03
2024-05-09T15:00:40.320Z,17.96
2024-05-09T15:03:10.648Z,18.23
2024-05-09T15:05:38.102Z,18.92
2024-05-09T15:08:06.317Z,19.55
2024-05-09T15:10:36.106Z,18.22
2024-05-09T15:13:05.340Z,17.95
2024-05-09T15:15:33.469Z,17.79
2024-05-09T15:18:01.030Z,18.19
2024-05-09T15:20:34.577Z,17.37
2024-05-09T15:23:04.938Z,17.67
2024-05-09T15:25:36.051Z,18.37
2024-05-09T15:28:04.925Z,18.54
2024-05-09T15:30:34.034Z,19.22
2024-05-09T15:33:06.547Z,18.27
2024-05-09T15:35:35.582Z,18.34
2024-05-09T15:38:03.676Z,18.89
2024-05-09T15:40:38.398Z,19.78
2024-05-09T15:43:08.860Z,19.64
2024-05-09T15:45:37.568Z,18.93
2024-05-09T15:48:05.774Z,19.49
2024-05-09T15:50:38.759Z,19.51
2024-05-09T15:53:09.952Z,19.97
2024-05-09T15:55:38.262Z,20.41
2024-05-09T15:58:06.533Z,20.66
2024-05-09T16:00:39.159Z,20.27
2024-05-09T16:03:10.505Z,20.61
2024-05-09T16:05:38.570Z,20.62
2024-05-09T16:08:06.721Z,20.16
2024-05-09T16:10:35.134Z,21.17
2024-05-09T16:13:03.772Z,20.27
2024-05-09T16:15:31.951Z,21.78
2024-05-09T16:18:00.264Z,23.90
2024-05-09T16:20:37.235Z,26.15
2024-05-09T16:23:08.314Z,28.06
2024-05-09T16:25:36.267Z,27.90
2024-05-09T16:28:07.566Z,28.07
2024-05-09T16:30:39.122Z,28.91
2024-05-09T16:33:07.116Z,29.11
2024-05-09T16:35:35.274Z,29.58
2024-05-09T16:38:03.015Z,29.76
2024-05-09T16:40:37.443Z,29.68
2024-05-09T16:43:09.109Z,29.68
2024-05-09T16:45:37.697Z,30.17
2024-05-09T16:48:06.568Z,30.50
2024-05-09T16:50:35.688Z,30.53
2024-05-09T16:53:05.005Z,31.07
2024-05-09T16:55:33.392Z,30.98
2024-05-09T16:58:01.150Z,31.16
2024-05-09T17:00:37.822Z,31.83
2024-05-09T17:03:09.991Z,31.44
2024-05-09T17:05:38.319Z,31.93
2024-05-09T17:08:06.479Z,32.16
2024-05-09T17:10:35.266Z,32.19
2024-05-09T17:13:04.666Z,32.72
2024-05-09T17:15:33.771Z,32.97
2024-05-09T17:18:01.731Z,32.84
2024-05-09T17:20:34.075Z,33.20
2024-05-09T17:23:04.591Z,33.31
2024-05-09T17:25:32.689Z,33.62
2024-05-09T17:28:06.506Z,34.27
2024-05-09T17:30:37.027Z,34.16
2024-05-09T17:33:07.083Z,33.97
2024-05-09T17:35:35.705Z,34.14
2024-05-09T17:38:03.103Z,34.78
2024-05-09T17:40:34.260Z,34.82
2024-05-09T17:43:04.993Z,34.88
2024-05-09T17:45:33.262Z,34.89
2024-05-09T17:48:01.319Z,35.39
2024-05-09T17:50:35.439Z,35.42
2024-05-09T17:53:08.168Z,35.53
2024-05-09T17:55:36.146Z,35.73
2024-05-09T17:58:04.824Z,36.04
2024-05-09T18:00:38.526Z,35.93
2024-05-09T18:03:11.033Z,35.82
2024-05-09T18:05:39.497Z,36.16
2024-05-09T18:08:07.388Z,36.80
2024-05-09T18:10:38.576Z,36.38
2024-05-09T18:13:08.484Z,37.66
2024-05-09T18:15:36.409Z,37.70
2024-05-09T18:18:04.615Z,37.11
2024-05-09T18:20:41.427Z,36.88
2024-05-09T18:23:17.474Z,37.11
2024-05-09T18:25:46.405Z,37.16
2024-05-09T18:28:14.565Z,38.22
2024-05-09T18:30:42.110Z,38.81
2024-05-09T18:33:10.643Z,37.92
2024-05-09T18:35:38.696Z,37.70
2024-05-09T18:38:06.242Z,37.54
2024-05-09T18:40:36.675Z,37.88
2024-05-09T18:43:07.492Z,38.04
2024-05-09T18:45:39.569Z,38.15
2024-05-09T18:48:08.534Z,37.88
2024-05-09T18:50:39.462Z,38.30
2024-05-09T18:53:12.795Z,38.60
2024-05-09T18:55:43.686Z,38.69
2024-05-09T18:58:11.240Z,38.49
2024-05-09T19:00:41.390Z,39.31
2024-05-09T19:03:13.530Z,39.07
2024-05-09T19:05:43.967Z,39.21
2024-05-09T19:08:12.753Z,39.45
2024-05-09T19:10:40.611Z,39.58
2024-05-09T19:13:11.964Z,39.96
2024-05-09T19:15:41.947Z,39.69
2024-05-09T19:18:10.369Z,40.00
2024-05-09T19:20:38.495Z,40.67
2024-05-09T19:23:06.865Z,40.74
2024-05-09T19:25:35.500Z,41.45
2024-05-09T19:28:04.000Z,41.51
2024-05-09T19:30:38.647Z,41.69
2024-05-09T19:33:10.237Z,41.93
2024-05-09T19:35:38.856Z,41.76
2024-05-09T19:38:06.376Z,42.82
2024-05-09T19:40:35.089Z,43.03
2024-05-09T19:43:04.858Z,43.17
2024-05-09T19:45:34.439Z,43.36
2024-05-09T19:48:02.735Z,43.22
2024-05-09T19:50:37.883Z,43.16
2024-05-09T19:53:10.745Z,43.36
2024-05-09T19:55:38.695Z,44.07
2024-05-09T19:58:07.340Z,44.26
2024-05-09T20:00:37.597Z,44.31
2024-05-09T20:03:07.504Z,43.17
2024-05-09T20:05:35.651Z,44.69
2024-05-09T20:08:03.514Z,45.12
2024-05-09T20:10:33.318Z,45.60
2024-05-09T20:13:03.217Z,45.68
2024-05-09T20:15:31.675Z,45.18
2024-05-09T20:17:59.215Z,46.39
2024-05-09T20:20:35.555Z,46.66
2024-05-09T20:23:06.856Z,46.09
2024-05-09T20:25:34.228Z,46.09
2024-05-09T20:28:01.703Z,46.20
2024-05-09T20:30:32.790Z,46.61
2024-05-09T20:33:02.458Z,47.32
2024-05-09T20:35:31.958Z,46.46
2024-05-09T20:37:59.650Z,45.98
2024-05-09T20:40:32.655Z,46.08
2024-05-09T20:43:03.916Z,45.94
2024-05-09T20:45:31.454Z,46.11
2024-05-09T20:47:58.994Z,45.76
2024-05-09T20:50:36.316Z,46.03
2024-05-09T20:53:12.159Z,45.66
2024-05-09T20:55:40.600Z,45.87
2024-05-09T20:58:08.732Z,46.44
2024-05-09T21:00:40.490Z,45.99
2024-05-09T21:03:12.449Z,46.07
2024-05-09T21:05:40.907Z,45.86
2024-05-09T21:08:08.751Z,46.11
2024-05-09T21:10:36.990Z,46.45
2024-05-09T21:13:05.874Z,47.35
2024-05-09T21:15:34.311Z,47.25
2024-05-09T21:18:01.950Z,47.06
2024-05-09T21:20:32.759Z,47.75
2024-05-09T21:23:01.455Z,48.08
2024-05-09T21:25:29.466Z,48.28
2024-05-09T21:27:56.962Z,48.56
2024-05-09T21:30:33.154Z,48.33
2024-05-09T21:33:09.847Z,48.73
2024-05-09T21:35:38.971Z,49.47
2024-05-09T21:38:07.261Z,50.11
2024-05-09T21:40:36.496Z,50.35
2024-05-09T21:43:06.324Z,50.17
2024-05-09T21:45:34.419Z,50.49
2024-05-09T21:48:05.454Z,50.78
2024-05-09T21:50:39.638Z,50.77
2024-05-09T21:53:10.592Z,50.31
2024-05-09T21:55:38.201Z,50.08
2024-05-09T21:58:05.747Z,51.13
2024-05-09T22:00:37.640Z,51.91
2024-05-09T22:03:07.271Z,51.74
2024-05-09T22:05:35.662Z,52.21
2024-05-09T22:08:03.581Z,52.24
2024-05-09T22:10:34.753Z,51.92
2024-05-09T22:13:05.412Z,52.46
2024-05-09T22:15:37.958Z,52.54
2024-05-09T22:18:08.073Z,52.39
2024-05-09T22:20:38.819Z,51.96
2024-05-09T22:23:08.288Z,51.39
2024-05-09T22:25:36.631Z,52.70
2024-05-09T22:28:04.557Z,51.93
2024-05-09T22:30:36.963Z,52.39
2024-05-09T22:33:08.141Z,53.00
2024-05-09T22:35:35.949Z,53.46
2024-05-09T22:38:03.626Z,53.92
2024-05-09T22:40:41.672Z,54.11
2024-05-09T22:43:17.410Z,53.93
2024-05-09T22:45:45.218Z,54.26
2024-05-09T22:48:12.939Z,55.11
2024-05-09T22:50:40.770Z,55.66
2024-05-09T22:53:08.154Z,54.95
2024-05-09T22:55:35.502Z,55.25
2024-05-09T22:58:03.047Z,54.44
2024-05-09T23:00:32.377Z,55.36
2024-05-09T23:03:01.342Z,55.21
2024-05-09T23:05:29.378Z,55.38
2024-05-09T23:07:57.074Z,56.07
2024-05-09T23:10:31.649Z,56.84
2024-05-09T23:13:03.658Z,56.74
2024-05-09T23:15:31.560Z,57.10
2024-05-09T23:17:59.322Z,57.81
2024-05-09T23:20:35.881Z,58.09
2024-05-09T23:23:07.083Z,58.75
2024-05-09T23:25:35.083Z,59.31
2024-05-09T23:28:02.729Z,59.25
2024-05-09T23:30:37.382Z,59.55
2024-05-09T23:33:09.039Z,60.21
2024-05-09T23:35:36.676Z,58.36
2024-05-09T23:38:04.431Z,57.62
2024-05-09T23:43:02.590Z,58.66
2024-05-09T23:45:30.062Z,58.60
2024-05-09T23:47:57.550Z,59.25
2024-05-09T23:50:33.228Z,59.46
2024-05-09T23:53:03.974Z,60.49
2024-05-09T23:55:32.327Z,60.88
2024-05-09T23:58:00.447Z,61.25
